sensor_id;sensor_type;location;lat;lon;timestamp;P1;durP1;ratioP1;P2;durP2;ratioP2
6640;SDS011;3356;49.360;8.266;2022-11-20T00:01:56;25.40;;;15.30;;
6640;SDS011;3356;49.360;8.266;2022-11-20T00:03:57;23.87;;;15.07;;
6640;SDS011;3356;49.360;8.266;2022-11-20T00:06:07;24.20;;;15.40;;
6640;SDS011;3356;49.360;8.266;2022-11-20T00:08:10;22.60;;;14.37;;
6640;SDS011;3356;49.360;8.266;2022-11-20T00:10:12;22.33;;;14.90;;
6640;SDS011;3356;49.360;8.266;2022-11-20T00:12:13;25.00;;;15.80;;
6640;SDS011;3356;49.360;8.266;2022-11-20T00:14:14;24.37;;;15.23;;
6640;SDS011;3356;49.360;8.266;2022-11-20T00:16:16;20.63;;;14.63;;
6640;SDS011;3356;49.360;8.266;2022-11-20T00:18:19;23.07;;;15.67;;
6640;SDS011;3356;49.360;8.266;2022-11-20T00:20:20;24.43;;;15.37;;
6640;SDS011;3356;49.360;8.266;2022-11-20T00:22:21;23.57;;;15.40;;
6640;SDS011;3356;49.360;8.266;2022-11-20T00:24:22;24.13;;;15.53;;
6640;SDS011;3356;49.360;8.266;2022-11-20T00:26:24;23.07;;;15.83;;
6640;SDS011;3356;49.360;8.266;2022-11-20T00:28:26;24.97;;;15.83;;
6640;SDS011;3356;49.360;8.266;2022-11-20T00:30:27;27.40;;;16.73;;
6640;SDS011;3356;49.360;8.266;2022-11-20T00:32:29;25.33;;;16.37;;
6640;SDS011;3356;49.360;8.266;2022-11-20T00:34:30;23.10;;;16.47;;
6640;SDS011;3356;49.360;8.266;2022-11-20T00:36:32;25.63;;;16.73;;
6640;SDS011;3356;49.360;8.266;2022-11-20T00:38:34;23.50;;;15.07;;
6640;SDS011;3356;49.360;8.266;2022-11-20T00:40:35;27.43;;;15.80;;
6640;SDS011;3356;49.360;8.266;2022-11-20T00:42:36;25.67;;;16.13;;
6640;SDS011;3356;49.360;8.266;2022-11-20T00:44:37;24.93;;;15.43;;
6640;SDS011;3356;49.360;8.266;2022-11-20T00:46:39;24.23;;;16.23;;
6640;SDS011;3356;49.360;8.266;2022-11-20T00:48:40;26.67;;;16.40;;
6640;SDS011;3356;49.360;8.266;2022-11-20T00:50:41;28.27;;;16.30;;
6640;SDS011;3356;49.360;8.266;2022-11-20T00:52:42;27.47;;;17.37;;
6640;SDS011;3356;49.360;8.266;2022-11-20T00:54:44;27.43;;;16.07;;
6640;SDS011;3356;49.360;8.266;2022-11-20T00:56:45;26.50;;;17.37;;
6640;SDS011;3356;49.360;8.266;2022-11-20T00:58:47;26.67;;;15.73;;
6640;SDS011;3356;49.360;8.266;2022-11-20T01:00:49;27.27;;;16.70;;
6640;SDS011;3356;49.360;8.266;2022-11-20T01:02:50;26.00;;;16.43;;
6640;SDS011;3356;49.360;8.266;2022-11-20T01:04:51;28.00;;;16.83;;
6640;SDS011;3356;49.360;8.266;2022-11-20T01:06:52;27.10;;;16.73;;
6640;SDS011;3356;49.360;8.266;2022-11-20T01:08:54;26.87;;;17.10;;
6640;SDS011;3356;49.360;8.266;2022-11-20T01:11:04;30.90;;;17.77;;
6640;SDS011;3356;49.360;8.266;2022-11-20T01:13:07;29.47;;;16.83;;
6640;SDS011;3356;49.360;8.266;2022-11-20T01:15:27;28.67;;;17.77;;
6640;SDS011;3356;49.360;8.266;2022-11-20T01:17:28;27.10;;;17.13;;
6640;SDS011;3356;49.360;8.266;2022-11-20T01:19:29;28.33;;;16.90;;
6640;SDS011;3356;49.360;8.266;2022-11-20T01:21:31;29.23;;;17.40;;
6640;SDS011;3356;49.360;8.266;2022-11-20T01:23:34;27.30;;;17.30;;
6640;SDS011;3356;49.360;8.266;2022-11-20T01:25:37;27.73;;;16.47;;
6640;SDS011;3356;49.360;8.266;2022-11-20T01:27:38;26.97;;;16.97;;
6640;SDS011;3356;49.360;8.266;2022-11-20T01:29:39;28.50;;;16.97;;
6640;SDS011;3356;49.360;8.266;2022-11-20T01:31:41;30.10;;;17.77;;
6640;SDS011;3356;49.360;8.266;2022-11-20T01:33:42;33.87;;;18.93;;
6640;SDS011;3356;49.360;8.266;2022-11-20T01:35:45;27.60;;;17.90;;
6640;SDS011;3356;49.360;8.266;2022-11-20T01:37:46;30.87;;;18.27;;
6640;SDS011;3356;49.360;8.266;2022-11-20T01:39:47;29.37;;;17.60;;
6640;SDS011;3356;49.360;8.266;2022-11-20T01:41:49;27.20;;;17.07;;
6640;SDS011;3356;49.360;8.266;2022-11-20T01:44:10;31.07;;;18.30;;
6640;SDS011;3356;49.360;8.266;2022-11-20T01:46:18;29.30;;;17.80;;
6640;SDS011;3356;49.360;8.266;2022-11-20T01:48:19;28.97;;;17.43;;
6640;SDS011;3356;49.360;8.266;2022-11-20T01:50:24;27.67;;;17.30;;
6640;SDS011;3356;49.360;8.266;2022-11-20T01:52:30;27.63;;;16.33;;
6640;SDS011;3356;49.360;8.266;2022-11-20T01:54:42;29.83;;;17.20;;
6640;SDS011;3356;49.360;8.266;2022-11-20T01:56:49;27.83;;;16.30;;
6640;SDS011;3356;49.360;8.266;2022-11-20T01:58:55;28.00;;;17.97;;
6640;SDS011;3356;49.360;8.266;2022-11-20T02:00:59;29.77;;;16.87;;
6640;SDS011;3356;49.360;8.266;2022-11-20T02:03:01;26.23;;;15.67;;
6640;SDS011;3356;49.360;8.266;2022-11-20T02:05:18;22.93;;;15.17;;
6640;SDS011;3356;49.360;8.266;2022-11-20T02:07:38;23.70;;;15.47;;
6640;SDS011;3356;49.360;8.266;2022-11-20T02:09:40;24.23;;;15.30;;
6640;SDS011;3356;49.360;8.266;2022-11-20T02:11:41;24.43;;;16.27;;
6640;SDS011;3356;49.360;8.266;2022-11-20T02:13:43;22.57;;;15.20;;
6640;SDS011;3356;49.360;8.266;2022-11-20T02:15:44;24.53;;;16.00;;
6640;SDS011;3356;49.360;8.266;2022-11-20T02:17:46;25.10;;;16.10;;
6640;SDS011;3356;49.360;8.266;2022-11-20T02:19:48;21.67;;;15.13;;
6640;SDS011;3356;49.360;8.266;2022-11-20T02:22:08;25.83;;;16.30;;
6640;SDS011;3356;49.360;8.266;2022-11-20T02:24:31;23.37;;;14.87;;
6640;SDS011;3356;49.360;8.266;2022-11-20T02:27:06;26.47;;;15.40;;
6640;SDS011;3356;49.360;8.266;2022-11-20T02:29:02;21.67;;;14.93;;
6640;SDS011;3356;49.360;8.266;2022-11-20T02:31:04;25.20;;;15.20;;
6640;SDS011;3356;49.360;8.266;2022-11-20T02:33:05;26.13;;;16.57;;
6640;SDS011;3356;49.360;8.266;2022-11-20T02:37:30;24.00;;;14.63;;
6640;SDS011;3356;49.360;8.266;2022-11-20T02:39:35;25.17;;;15.63;;
6640;SDS011;3356;49.360;8.266;2022-11-20T02:41:36;25.07;;;14.87;;
6640;SDS011;3356;49.360;8.266;2022-11-20T02:43:38;25.30;;;15.90;;
6640;SDS011;3356;49.360;8.266;2022-11-20T02:45:39;26.53;;;16.27;;
6640;SDS011;3356;49.360;8.266;2022-11-20T02:47:40;29.00;;;17.97;;
6640;SDS011;3356;49.360;8.266;2022-11-20T02:49:41;26.10;;;16.87;;
6640;SDS011;3356;49.360;8.266;2022-11-20T02:51:42;27.57;;;18.40;;
6640;SDS011;3356;49.360;8.266;2022-11-20T02:53:43;30.23;;;17.67;;
6640;SDS011;3356;49.360;8.266;2022-11-20T02:55:44;30.30;;;18.67;;
6640;SDS011;3356;49.360;8.266;2022-11-20T02:57:45;30.93;;;17.67;;
6640;SDS011;3356;49.360;8.266;2022-11-20T02:59:46;31.57;;;18.93;;
6640;SDS011;3356;49.360;8.266;2022-11-20T03:01:48;28.53;;;17.87;;
6640;SDS011;3356;49.360;8.266;2022-11-20T03:03:49;32.33;;;18.73;;
6640;SDS011;3356;49.360;8.266;2022-11-20T03:05:50;27.73;;;16.83;;
6640;SDS011;3356;49.360;8.266;2022-11-20T03:07:51;27.37;;;16.23;;
6640;SDS011;3356;49.360;8.266;2022-11-20T03:09:52;25.83;;;16.07;;
6640;SDS011;3356;49.360;8.266;2022-11-20T03:11:53;26.97;;;16.97;;
6640;SDS011;3356;49.360;8.266;2022-11-20T03:13:54;25.87;;;16.30;;
6640;SDS011;3356;49.360;8.266;2022-11-20T03:15:55;28.17;;;16.20;;
6640;SDS011;3356;49.360;8.266;2022-11-20T03:17:56;29.17;;;16.83;;
6640;SDS011;3356;49.360;8.266;2022-11-20T03:19:57;26.50;;;16.20;;
6640;SDS011;3356;49.360;8.266;2022-11-20T03:21:59;25.90;;;15.43;;
6640;SDS011;3356;49.360;8.266;2022-11-20T03:24:00;23.97;;;15.63;;
6640;SDS011;3356;49.360;8.266;2022-11-20T03:28:12;22.93;;;15.53;;
6640;SDS011;3356;49.360;8.266;2022-11-20T03:30:13;26.47;;;15.97;;
6640;SDS011;3356;49.360;8.266;2022-11-20T03:32:15;25.90;;;16.47;;
6640;SDS011;3356;49.360;8.266;2022-11-20T03:34:16;23.33;;;15.27;;
6640;SDS011;3356;49.360;8.266;2022-11-20T03:36:17;24.07;;;15.93;;
6640;SDS011;3356;49.360;8.266;2022-11-20T03:38:19;25.27;;;16.30;;
6640;SDS011;3356;49.360;8.266;2022-11-20T03:40:20;25.80;;;16.10;;
6640;SDS011;3356;49.360;8.266;2022-11-20T03:42:21;24.50;;;14.83;;
6640;SDS011;3356;49.360;8.266;2022-11-20T03:44:41;27.47;;;17.53;;
6640;SDS011;3356;49.360;8.266;2022-11-20T03:46:42;24.10;;;15.73;;
6640;SDS011;3356;49.360;8.266;2022-11-20T03:48:43;25.33;;;16.37;;
6640;SDS011;3356;49.360;8.266;2022-11-20T03:50:44;25.90;;;15.70;;
6640;SDS011;3356;49.360;8.266;2022-11-20T03:52:47;27.97;;;16.93;;
6640;SDS011;3356;49.360;8.266;2022-11-20T03:54:49;24.40;;;16.17;;
6640;SDS011;3356;49.360;8.266;2022-11-20T03:56:50;26.57;;;15.80;;
6640;SDS011;3356;49.360;8.266;2022-11-20T03:58:51;27.90;;;16.30;;
6640;SDS011;3356;49.360;8.266;2022-11-20T04:00:52;24.20;;;15.10;;
6640;SDS011;3356;49.360;8.266;2022-11-20T04:02:53;26.67;;;15.37;;
6640;SDS011;3356;49.360;8.266;2022-11-20T04:04:54;26.30;;;15.37;;
6640;SDS011;3356;49.360;8.266;2022-11-20T04:06:55;26.47;;;15.33;;
6640;SDS011;3356;49.360;8.266;2022-11-20T04:08:57;26.47;;;16.50;;
6640;SDS011;3356;49.360;8.266;2022-11-20T04:11:08;26.80;;;15.80;;
6640;SDS011;3356;49.360;8.266;2022-11-20T04:13:12;23.83;;;15.03;;
6640;SDS011;3356;49.360;8.266;2022-11-20T04:15:13;25.43;;;15.57;;
6640;SDS011;3356;49.360;8.266;2022-11-20T04:17:14;30.47;;;17.50;;
6640;SDS011;3356;49.360;8.266;2022-11-20T04:19:16;24.17;;;15.13;;
6640;SDS011;3356;49.360;8.266;2022-11-20T04:21:17;25.87;;;16.43;;
6640;SDS011;3356;49.360;8.266;2022-11-20T04:23:18;24.63;;;15.63;;
6640;SDS011;3356;49.360;8.266;2022-11-20T04:25:19;25.87;;;15.87;;
6640;SDS011;3356;49.360;8.266;2022-11-20T04:27:20;24.80;;;15.60;;
6640;SDS011;3356;49.360;8.266;2022-11-20T04:29:22;21.77;;;14.87;;
6640;SDS011;3356;49.360;8.266;2022-11-20T04:31:24;25.03;;;15.57;;
6640;SDS011;3356;49.360;8.266;2022-11-20T04:33:27;26.33;;;15.53;;
6640;SDS011;3356;49.360;8.266;2022-11-20T04:35:28;27.67;;;16.50;;
6640;SDS011;3356;49.360;8.266;2022-11-20T04:37:29;24.70;;;15.33;;
6640;SDS011;3356;49.360;8.266;2022-11-20T04:39:30;29.57;;;17.63;;
6640;SDS011;3356;49.360;8.266;2022-11-20T04:41:32;30.73;;;17.20;;
6640;SDS011;3356;49.360;8.266;2022-11-20T04:43:35;31.93;;;17.90;;
6640;SDS011;3356;49.360;8.266;2022-11-20T04:45:36;24.30;;;15.33;;
6640;SDS011;3356;49.360;8.266;2022-11-20T04:47:37;26.03;;;14.87;;
6640;SDS011;3356;49.360;8.266;2022-11-20T04:49:38;24.27;;;14.57;;
6640;SDS011;3356;49.360;8.266;2022-11-20T04:51:39;26.77;;;16.17;;
6640;SDS011;3356;49.360;8.266;2022-11-20T04:53:40;26.77;;;16.23;;
6640;SDS011;3356;49.360;8.266;2022-11-20T04:55:42;26.33;;;15.90;;
6640;SDS011;3356;49.360;8.266;2022-11-20T04:57:43;26.90;;;15.93;;
6640;SDS011;3356;49.360;8.266;2022-11-20T04:59:44;25.03;;;15.13;;
6640;SDS011;3356;49.360;8.266;2022-11-20T05:01:45;26.13;;;15.53;;
6640;SDS011;3356;49.360;8.266;2022-11-20T05:03:46;25.40;;;15.23;;
6640;SDS011;3356;49.360;8.266;2022-11-20T05:05:47;25.10;;;15.10;;
6640;SDS011;3356;49.360;8.266;2022-11-20T05:07:48;24.20;;;15.60;;
6640;SDS011;3356;49.360;8.266;2022-11-20T05:09:50;25.90;;;14.90;;
6640;SDS011;3356;49.360;8.266;2022-11-20T05:11:51;25.57;;;15.33;;
6640;SDS011;3356;49.360;8.266;2022-11-20T05:13:52;25.00;;;15.70;;
6640;SDS011;3356;49.360;8.266;2022-11-20T05:15:53;25.07;;;15.20;;
6640;SDS011;3356;49.360;8.266;2022-11-20T05:17:54;23.77;;;15.67;;
6640;SDS011;3356;49.360;8.266;2022-11-20T05:19:55;27.80;;;15.30;;
6640;SDS011;3356;49.360;8.266;2022-11-20T05:21:56;26.77;;;15.63;;
6640;SDS011;3356;49.360;8.266;2022-11-20T05:23:57;22.97;;;14.33;;
6640;SDS011;3356;49.360;8.266;2022-11-20T05:25:59;25.97;;;16.17;;
6640;SDS011;3356;49.360;8.266;2022-11-20T05:28:00;27.40;;;16.10;;
6640;SDS011;3356;49.360;8.266;2022-11-20T05:30:02;24.83;;;15.23;;
6640;SDS011;3356;49.360;8.266;2022-11-20T05:32:06;26.00;;;15.97;;
6640;SDS011;3356;49.360;8.266;2022-11-20T05:34:10;25.97;;;15.73;;
6640;SDS011;3356;49.360;8.266;2022-11-20T05:36:11;27.60;;;16.03;;
6640;SDS011;3356;49.360;8.266;2022-11-20T05:38:14;23.47;;;14.90;;
6640;SDS011;3356;49.360;8.266;2022-11-20T05:40:15;25.50;;;15.37;;
6640;SDS011;3356;49.360;8.266;2022-11-20T05:42:16;27.83;;;16.13;;
6640;SDS011;3356;49.360;8.266;2022-11-20T05:44:32;24.80;;;15.37;;
6640;SDS011;3356;49.360;8.266;2022-11-20T05:46:34;25.23;;;15.57;;
6640;SDS011;3356;49.360;8.266;2022-11-20T05:48:35;28.67;;;15.47;;
6640;SDS011;3356;49.360;8.266;2022-11-20T05:50:37;26.10;;;15.10;;
6640;SDS011;3356;49.360;8.266;2022-11-20T05:52:38;24.47;;;15.13;;
6640;SDS011;3356;49.360;8.266;2022-11-20T05:54:39;25.43;;;15.60;;
6640;SDS011;3356;49.360;8.266;2022-11-20T05:56:40;25.87;;;15.93;;
6640;SDS011;3356;49.360;8.266;2022-11-20T05:58:41;26.40;;;15.37;;
6640;SDS011;3356;49.360;8.266;2022-11-20T06:00:42;27.23;;;16.30;;
6640;SDS011;3356;49.360;8.266;2022-11-20T06:02:43;29.23;;;15.57;;
6640;SDS011;3356;49.360;8.266;2022-11-20T06:04:45;27.47;;;16.90;;
6640;SDS011;3356;49.360;8.266;2022-11-20T06:06:46;27.47;;;16.97;;
6640;SDS011;3356;49.360;8.266;2022-11-20T06:08:47;25.93;;;16.07;;
6640;SDS011;3356;49.360;8.266;2022-11-20T06:10:49;27.00;;;16.30;;
6640;SDS011;3356;49.360;8.266;2022-11-20T06:12:50;26.90;;;16.20;;
6640;SDS011;3356;49.360;8.266;2022-11-20T06:14:51;26.77;;;16.10;;
6640;SDS011;3356;49.360;8.266;2022-11-20T06:16:52;27.23;;;16.30;;
6640;SDS011;3356;49.360;8.266;2022-11-20T06:18:53;25.50;;;17.10;;
6640;SDS011;3356;49.360;8.266;2022-11-20T06:21:01;27.47;;;17.93;;
6640;SDS011;3356;49.360;8.266;2022-11-20T06:23:09;32.23;;;16.90;;
6640;SDS011;3356;49.360;8.266;2022-11-20T06:25:10;33.57;;;18.00;;
6640;SDS011;3356;49.360;8.266;2022-11-20T06:27:12;43.20;;;18.93;;
6640;SDS011;3356;49.360;8.266;2022-11-20T06:29:13;39.70;;;19.13;;
6640;SDS011;3356;49.360;8.266;2022-11-20T06:31:16;30.87;;;17.03;;
6640;SDS011;3356;49.360;8.266;2022-11-20T06:33:19;28.43;;;15.73;;
6640;SDS011;3356;49.360;8.266;2022-11-20T06:35:20;31.00;;;16.83;;
6640;SDS011;3356;49.360;8.266;2022-11-20T06:37:21;25.47;;;15.03;;
6640;SDS011;3356;49.360;8.266;2022-11-20T06:39:22;25.27;;;15.17;;
6640;SDS011;3356;49.360;8.266;2022-11-20T06:41:23;28.13;;;16.27;;
6640;SDS011;3356;49.360;8.266;2022-11-20T06:43:25;28.73;;;15.87;;
6640;SDS011;3356;49.360;8.266;2022-11-20T06:45:26;30.63;;;15.87;;
6640;SDS011;3356;49.360;8.266;2022-11-20T06:47:27;30.53;;;17.10;;
6640;SDS011;3356;49.360;8.266;2022-11-20T06:49:28;26.97;;;15.93;;
6640;SDS011;3356;49.360;8.266;2022-11-20T06:51:29;31.63;;;15.83;;
6640;SDS011;3356;49.360;8.266;2022-11-20T06:53:30;25.43;;;14.93;;
6640;SDS011;3356;49.360;8.266;2022-11-20T06:55:32;24.97;;;15.33;;
6640;SDS011;3356;49.360;8.266;2022-11-20T06:57:33;28.47;;;16.10;;
6640;SDS011;3356;49.360;8.266;2022-11-20T06:59:34;26.77;;;15.43;;
6640;SDS011;3356;49.360;8.266;2022-11-20T07:01:35;25.73;;;14.83;;
6640;SDS011;3356;49.360;8.266;2022-11-20T07:03:36;26.73;;;14.90;;
6640;SDS011;3356;49.360;8.266;2022-11-20T07:05:38;26.77;;;14.70;;
6640;SDS011;3356;49.360;8.266;2022-11-20T07:07:40;27.93;;;16.10;;
6640;SDS011;3356;49.360;8.266;2022-11-20T07:09:41;24.17;;;14.87;;
6640;SDS011;3356;49.360;8.266;2022-11-20T07:11:42;23.07;;;14.03;;
6640;SDS011;3356;49.360;8.266;2022-11-20T07:13:44;25.67;;;13.93;;
6640;SDS011;3356;49.360;8.266;2022-11-20T07:15:45;34.93;;;17.40;;
6640;SDS011;3356;49.360;8.266;2022-11-20T07:17:46;38.40;;;19.33;;
6640;SDS011;3356;49.360;8.266;2022-11-20T07:19:47;37.03;;;18.27;;
6640;SDS011;3356;49.360;8.266;2022-11-20T07:21:48;30.40;;;17.00;;
6640;SDS011;3356;49.360;8.266;2022-11-20T07:23:49;25.63;;;14.10;;
6640;SDS011;3356;49.360;8.266;2022-11-20T07:25:50;26.10;;;14.60;;
6640;SDS011;3356;49.360;8.266;2022-11-20T07:27:51;23.17;;;14.13;;
6640;SDS011;3356;49.360;8.266;2022-11-20T07:29:53;20.93;;;13.67;;
6640;SDS011;3356;49.360;8.266;2022-11-20T07:31:54;22.63;;;13.63;;
6640;SDS011;3356;49.360;8.266;2022-11-20T07:33:56;26.77;;;13.50;;
6640;SDS011;3356;49.360;8.266;2022-11-20T07:36:00;20.50;;;13.53;;
6640;SDS011;3356;49.360;8.266;2022-11-20T07:38:02;20.63;;;13.47;;
6640;SDS011;3356;49.360;8.266;2022-11-20T07:40:03;19.40;;;12.33;;
6640;SDS011;3356;49.360;8.266;2022-11-20T07:42:05;18.93;;;11.87;;
6640;SDS011;3356;49.360;8.266;2022-11-20T07:44:11;22.13;;;13.50;;
6640;SDS011;3356;49.360;8.266;2022-11-20T07:46:12;18.63;;;11.90;;
6640;SDS011;3356;49.360;8.266;2022-11-20T07:48:13;19.73;;;11.00;;
6640;SDS011;3356;49.360;8.266;2022-11-20T07:50:15;15.60;;;10.53;;
6640;SDS011;3356;49.360;8.266;2022-11-20T07:52:16;16.60;;;11.07;;
6640;SDS011;3356;49.360;8.266;2022-11-20T07:54:17;15.60;;;10.13;;
6640;SDS011;3356;49.360;8.266;2022-11-20T07:56:19;16.40;;;10.00;;
6640;SDS011;3356;49.360;8.266;2022-11-20T07:58:20;16.53;;;10.30;;
6640;SDS011;3356;49.360;8.266;2022-11-20T08:00:21;14.57;;;10.00;;
6640;SDS011;3356;49.360;8.266;2022-11-20T08:02:22;18.40;;;10.70;;
6640;SDS011;3356;49.360;8.266;2022-11-20T08:04:23;16.23;;;10.70;;
6640;SDS011;3356;49.360;8.266;2022-11-20T08:06:25;17.17;;;11.07;;
6640;SDS011;3356;49.360;8.266;2022-11-20T08:08:26;21.37;;;12.53;;
6640;SDS011;3356;49.360;8.266;2022-11-20T08:10:28;19.03;;;13.33;;
6640;SDS011;3356;49.360;8.266;2022-11-20T08:12:29;18.10;;;12.87;;
6640;SDS011;3356;49.360;8.266;2022-11-20T08:14:49;19.77;;;12.37;;
6640;SDS011;3356;49.360;8.266;2022-11-20T08:16:50;21.43;;;14.10;;
6640;SDS011;3356;49.360;8.266;2022-11-20T08:18:51;23.60;;;14.20;;
6640;SDS011;3356;49.360;8.266;2022-11-20T08:20:52;19.17;;;13.17;;
6640;SDS011;3356;49.360;8.266;2022-11-20T08:22:57;19.00;;;11.47;;
6640;SDS011;3356;49.360;8.266;2022-11-20T08:25:00;8.80;;;7.70;;
6640;SDS011;3356;49.360;8.266;2022-11-20T08:27:01;8.70;;;6.47;;
6640;SDS011;3356;49.360;8.266;2022-11-20T08:29:04;8.33;;;6.27;;
6640;SDS011;3356;49.360;8.266;2022-11-20T08:31:05;5.97;;;5.00;;
6640;SDS011;3356;49.360;8.266;2022-11-20T08:33:07;7.27;;;6.03;;
6640;SDS011;3356;49.360;8.266;2022-11-20T08:35:09;5.43;;;4.93;;
6640;SDS011;3356;49.360;8.266;2022-11-20T08:37:10;7.87;;;5.80;;
6640;SDS011;3356;49.360;8.266;2022-11-20T08:39:11;6.23;;;5.50;;
6640;SDS011;3356;49.360;8.266;2022-11-20T08:41:13;6.10;;;5.10;;
6640;SDS011;3356;49.360;8.266;2022-11-20T08:43:31;7.30;;;5.83;;
6640;SDS011;3356;49.360;8.266;2022-11-20T08:45:32;9.80;;;5.83;;
6640;SDS011;3356;49.360;8.266;2022-11-20T08:47:33;6.17;;;5.50;;
6640;SDS011;3356;49.360;8.266;2022-11-20T08:49:35;6.10;;;5.50;;
6640;SDS011;3356;49.360;8.266;2022-11-20T08:51:37;6.07;;;5.47;;
6640;SDS011;3356;49.360;8.266;2022-11-20T08:53:38;6.00;;;5.27;;
6640;SDS011;3356;49.360;8.266;2022-11-20T08:55:40;7.13;;;5.30;;
6640;SDS011;3356;49.360;8.266;2022-11-20T08:57:41;7.03;;;5.80;;
6640;SDS011;3356;49.360;8.266;2022-11-20T08:59:42;6.13;;;4.90;;
6640;SDS011;3356;49.360;8.266;2022-11-20T09:01:43;6.43;;;5.23;;
6640;SDS011;3356;49.360;8.266;2022-11-20T09:03:44;19.67;;;13.83;;
6640;SDS011;3356;49.360;8.266;2022-11-20T09:05:46;30.57;;;21.60;;
6640;SDS011;3356;49.360;8.266;2022-11-20T09:07:47;33.50;;;21.77;;
6640;SDS011;3356;49.360;8.266;2022-11-20T09:09:48;24.57;;;16.57;;
6640;SDS011;3356;49.360;8.266;2022-11-20T09:11:49;29.63;;;21.00;;
6640;SDS011;3356;49.360;8.266;2022-11-20T09:13:50;27.90;;;19.20;;
6640;SDS011;3356;49.360;8.266;2022-11-20T09:15:55;26.57;;;18.90;;
6640;SDS011;3356;49.360;8.266;2022-11-20T09:18:00;25.33;;;16.77;;
6640;SDS011;3356;49.360;8.266;2022-11-20T09:20:03;32.13;;;22.83;;
6640;SDS011;3356;49.360;8.266;2022-11-20T09:22:04;26.37;;;18.33;;
6640;SDS011;3356;49.360;8.266;2022-11-20T09:24:05;35.27;;;24.83;;
6640;SDS011;3356;49.360;8.266;2022-11-20T09:26:10;37.73;;;20.13;;
6640;SDS011;3356;49.360;8.266;2022-11-20T09:28:12;29.50;;;18.57;;
6640;SDS011;3356;49.360;8.266;2022-11-20T09:30:14;25.13;;;16.87;;
6640;SDS011;3356;49.360;8.266;2022-11-20T09:32:16;26.13;;;16.67;;
6640;SDS011;3356;49.360;8.266;2022-11-20T09:34:17;30.73;;;20.37;;
6640;SDS011;3356;49.360;8.266;2022-11-20T09:36:18;27.43;;;17.60;;
6640;SDS011;3356;49.360;8.266;2022-11-20T09:38:19;31.33;;;19.03;;
6640;SDS011;3356;49.360;8.266;2022-11-20T09:40:21;26.43;;;17.33;;
6640;SDS011;3356;49.360;8.266;2022-11-20T09:52:16;36.30;;;21.90;;
6640;SDS011;3356;49.360;8.266;2022-11-20T09:54:21;36.43;;;20.97;;
6640;SDS011;3356;49.360;8.266;2022-11-20T09:56:27;42.20;;;22.77;;
6640;SDS011;3356;49.360;8.266;2022-11-20T09:58:39;30.43;;;19.10;;
6640;SDS011;3356;49.360;8.266;2022-11-20T10:00:43;29.47;;;18.40;;
6640;SDS011;3356;49.360;8.266;2022-11-20T10:05:15;34.27;;;20.03;;
6640;SDS011;3356;49.360;8.266;2022-11-20T10:07:22;30.27;;;18.50;;
6640;SDS011;3356;49.360;8.266;2022-11-20T10:09:31;31.33;;;20.57;;
6640;SDS011;3356;49.360;8.266;2022-11-20T10:19:01;29.13;;;18.07;;
6640;SDS011;3356;49.360;8.266;2022-11-20T10:21:24;30.40;;;18.40;;
6640;SDS011;3356;49.360;8.266;2022-11-20T10:23:30;28.60;;;18.50;;
6640;SDS011;3356;49.360;8.266;2022-11-20T10:30:22;29.13;;;17.50;;
6640;SDS011;3356;49.360;8.266;2022-11-20T10:32:27;30.97;;;19.23;;
6640;SDS011;3356;49.360;8.266;2022-11-20T10:34:44;29.37;;;17.70;;
6640;SDS011;3356;49.360;8.266;2022-11-20T10:36:56;26.97;;;17.67;;
6640;SDS011;3356;49.360;8.266;2022-11-20T10:39:06;26.37;;;17.10;;
6640;SDS011;3356;49.360;8.266;2022-11-20T10:41:20;30.93;;;17.90;;
6640;SDS011;3356;49.360;8.266;2022-11-20T10:43:32;27.87;;;16.93;;
6640;SDS011;3356;49.360;8.266;2022-11-20T10:50:09;26.90;;;18.40;;
6640;SDS011;3356;49.360;8.266;2022-11-20T10:54:38;26.00;;;16.60;;
6640;SDS011;3356;49.360;8.266;2022-11-20T10:59:56;23.27;;;15.67;;
6640;SDS011;3356;49.360;8.266;2022-11-20T11:02:01;18.50;;;12.90;;
6640;SDS011;3356;49.360;8.266;2022-11-20T11:04:32;13.23;;;10.27;;
6640;SDS011;3356;49.360;8.266;2022-11-20T11:06:39;13.90;;;8.47;;
6640;SDS011;3356;49.360;8.266;2022-11-20T11:08:44;7.87;;;5.93;;
6640;SDS011;3356;49.360;8.266;2022-11-20T11:10:59;6.37;;;3.57;;
6640;SDS011;3356;49.360;8.266;2022-11-20T11:13:03;7.50;;;4.50;;
6640;SDS011;3356;49.360;8.266;2022-11-20T11:15:04;4.80;;;4.10;;
6640;SDS011;3356;49.360;8.266;2022-11-20T11:17:17;7.47;;;5.13;;
6640;SDS011;3356;49.360;8.266;2022-11-20T11:19:22;7.70;;;4.50;;
6640;SDS011;3356;49.360;8.266;2022-11-20T11:21:24;5.10;;;4.07;;
6640;SDS011;3356;49.360;8.266;2022-11-20T11:23:29;5.50;;;3.97;;
6640;SDS011;3356;49.360;8.266;2022-11-20T11:25:32;3.57;;;3.07;;
6640;SDS011;3356;49.360;8.266;2022-11-20T11:27:45;5.13;;;3.30;;
6640;SDS011;3356;49.360;8.266;2022-11-20T11:29:47;3.70;;;2.53;;
6640;SDS011;3356;49.360;8.266;2022-11-20T11:31:48;4.60;;;2.63;;
6640;SDS011;3356;49.360;8.266;2022-11-20T11:33:50;5.87;;;2.40;;
6640;SDS011;3356;49.360;8.266;2022-11-20T11:36:01;2.43;;;2.23;;
6640;SDS011;3356;49.360;8.266;2022-11-20T11:38:06;3.63;;;2.10;;
6640;SDS011;3356;49.360;8.266;2022-11-20T11:40:12;3.77;;;2.20;;
6640;SDS011;3356;49.360;8.266;2022-11-20T11:42:16;3.13;;;2.43;;
6640;SDS011;3356;49.360;8.266;2022-11-20T11:44:20;4.90;;;2.30;;
6640;SDS011;3356;49.360;8.266;2022-11-20T11:46:43;4.63;;;2.03;;
6640;SDS011;3356;49.360;8.266;2022-11-20T11:51:07;3.37;;;2.00;;
6640;SDS011;3356;49.360;8.266;2022-11-20T11:53:13;5.77;;;2.00;;
6640;SDS011;3356;49.360;8.266;2022-11-20T11:55:35;6.80;;;2.10;;
6640;SDS011;3356;49.360;8.266;2022-11-20T11:59:59;14.80;;;2.37;;
6640;SDS011;3356;49.360;8.266;2022-11-20T12:02:10;4.30;;;1.97;;
6640;SDS011;3356;49.360;8.266;2022-11-20T12:06:38;2.87;;;1.77;;
6640;SDS011;3356;49.360;8.266;2022-11-20T12:11:06;4.40;;;1.37;;
6640;SDS011;3356;49.360;8.266;2022-11-20T12:15:34;3.57;;;2.40;;
6640;SDS011;3356;49.360;8.266;2022-11-20T12:17:36;4.23;;;2.00;;
6640;SDS011;3356;49.360;8.266;2022-11-20T12:19:37;3.73;;;1.70;;
6640;SDS011;3356;49.360;8.266;2022-11-20T12:28:54;4.53;;;2.17;;
6640;SDS011;3356;49.360;8.266;2022-11-20T12:33:33;5.97;;;1.80;;
6640;SDS011;3356;49.360;8.266;2022-11-20T12:40:46;3.63;;;1.90;;
6640;SDS011;3356;49.360;8.266;2022-11-20T12:43:01;6.40;;;2.10;;
6640;SDS011;3356;49.360;8.266;2022-11-20T12:46:00;5.90;;;1.90;;
6640;SDS011;3356;49.360;8.266;2022-11-20T12:52:30;3.70;;;1.70;;
6640;SDS011;3356;49.360;8.266;2022-11-20T12:57:49;4.47;;;2.40;;
6640;SDS011;3356;49.360;8.266;2022-11-20T13:05:21;3.67;;;1.30;;
6640;SDS011;3356;49.360;8.266;2022-11-20T13:07:30;4.97;;;1.40;;
6640;SDS011;3356;49.360;8.266;2022-11-20T13:09:33;5.70;;;1.90;;
6640;SDS011;3356;49.360;8.266;2022-11-20T13:11:45;5.57;;;1.93;;
6640;SDS011;3356;49.360;8.266;2022-11-20T13:16:10;2.40;;;1.70;;
6640;SDS011;3356;49.360;8.266;2022-11-20T13:18:22;3.93;;;1.80;;
6640;SDS011;3356;49.360;8.266;2022-11-20T13:20:24;7.37;;;2.17;;
6640;SDS011;3356;49.360;8.266;2022-11-20T13:22:41;4.37;;;1.50;;
6640;SDS011;3356;49.360;8.266;2022-11-20T13:24:49;5.63;;;2.07;;
6640;SDS011;3356;49.360;8.266;2022-11-20T13:27:01;7.97;;;2.17;;
6640;SDS011;3356;49.360;8.266;2022-11-20T13:29:09;9.77;;;2.10;;
6640;SDS011;3356;49.360;8.266;2022-11-20T13:31:32;3.47;;;1.50;;
6640;SDS011;3356;49.360;8.266;2022-11-20T13:33:38;2.30;;;1.20;;
6640;SDS011;3356;49.360;8.266;2022-11-20T13:35:43;4.77;;;1.87;;
6640;SDS011;3356;49.360;8.266;2022-11-20T13:40:20;6.60;;;1.57;;
6640;SDS011;3356;49.360;8.266;2022-11-20T13:42:27;3.53;;;1.40;;
6640;SDS011;3356;49.360;8.266;2022-11-20T13:44:37;3.40;;;1.30;;
6640;SDS011;3356;49.360;8.266;2022-11-20T13:46:41;5.00;;;1.40;;
6640;SDS011;3356;49.360;8.266;2022-11-20T13:48:47;3.23;;;1.67;;
6640;SDS011;3356;49.360;8.266;2022-11-20T13:50:52;6.57;;;2.00;;
6640;SDS011;3356;49.360;8.266;2022-11-20T13:55:43;3.43;;;2.00;;
6640;SDS011;3356;49.360;8.266;2022-11-20T14:02:20;2.30;;;1.80;;